sensor_id;sensor_type;location;lat;lon;timestamp;temperature;humidity
3134;DHT22;1577;49.912;10.924;2023-08-08T18:25:10;20.50;99.90
3134;DHT22;1577;49.912;10.924;2023-08-08T18:27:35;19.30;94.40
3134;DHT22;1577;49.912;10.924;2023-08-08T18:30:02;19.20;94.50
3134;DHT22;1577;49.912;10.924;2023-08-08T18:32:27;19.20;94.30
3134;DHT22;1577;49.912;10.924;2023-08-08T18:34:53;19.20;94.90
3134;DHT22;1577;49.912;10.924;2023-08-08T18:37:19;19.20;94.60
3134;DHT22;1577;49.912;10.924;2023-08-08T18:39:45;19.10;94.40
3134;DHT22;1577;49.912;10.924;2023-08-08T18:42:10;19.10;94.80
3134;DHT22;1577;49.912;10.924;2023-08-08T18:44:36;19.10;94.80
3134;DHT22;1577;49.912;10.924;2023-08-08T18:47:01;19.10;94.80
3134;DHT22;1577;49.912;10.924;2023-08-08T18:49:27;19.10;94.90
3134;DHT22;1577;49.912;10.924;2023-08-08T18:51:53;19.10;95.30
3134;DHT22;1577;49.912;10.924;2023-08-08T18:54:19;18.90;95.60
3134;DHT22;1577;49.912;10.924;2023-08-08T18:56:45;18.90;95.40
3134;DHT22;1577;49.912;10.924;2023-08-08T18:59:10;18.80;95.70
3134;DHT22;1577;49.912;10.924;2023-08-08T19:01:36;18.80;95.60
3134;DHT22;1577;49.912;10.924;2023-08-08T19:04:02;18.70;95.70
3134;DHT22;1577;49.912;10.924;2023-08-08T19:06:28;18.70;95.80
3134;DHT22;1577;49.912;10.924;2023-08-08T19:08:53;18.70;96.20
3134;DHT22;1577;49.912;10.924;2023-08-08T19:11:19;18.70;96.70
3134;DHT22;1577;49.912;10.924;2023-08-08T19:13:45;18.60;96.80
3134;DHT22;1577;49.912;10.924;2023-08-08T19:16:11;18.70;96.40
3134;DHT22;1577;49.912;10.924;2023-08-08T19:18:36;18.60;96.60
3134;DHT22;1577;49.912;10.924;2023-08-08T19:21:02;18.60;96.60
3134;DHT22;1577;49.912;10.924;2023-08-08T19:23:28;18.50;96.90
3134;DHT22;1577;49.912;10.924;2023-08-08T19:25:58;18.40;97.40
3134;DHT22;1577;49.912;10.924;2023-08-08T19:28:25;18.30;97.20
3134;DHT22;1577;49.912;10.924;2023-08-08T19:30:51;18.30;97.40
3134;DHT22;1577;49.912;10.924;2023-08-08T19:33:17;18.30;98.00
3134;DHT22;1577;49.912;10.924;2023-08-08T19:35:43;18.30;97.90
3134;DHT22;1577;49.912;10.924;2023-08-08T19:38:08;18.30;97.60
3134;DHT22;1577;49.912;10.924;2023-08-08T19:40:34;18.20;97.90
3134;DHT22;1577;49.912;10.924;2023-08-08T19:42:59;18.10;98.10
3134;DHT22;1577;49.912;10.924;2023-08-08T19:45:26;18.00;98.30
3134;DHT22;1577;49.912;10.924;2023-08-08T19:47:51;18.10;98.50
3134;DHT22;1577;49.912;10.924;2023-08-08T19:50:17;18.10;98.40
3134;DHT22;1577;49.912;10.924;2023-08-08T19:52:43;18.00;98.20
3134;DHT22;1577;49.912;10.924;2023-08-08T19:55:09;18.00;98.80
3134;DHT22;1577;49.912;10.924;2023-08-08T19:57:35;17.90;98.90
3134;DHT22;1577;49.912;10.924;2023-08-08T20:00:02;17.70;98.80
3134;DHT22;1577;49.912;10.924;2023-08-08T20:02:29;17.70;99.20
3134;DHT22;1577;49.912;10.924;2023-08-08T20:04:55;17.80;99.20
3134;DHT22;1577;49.912;10.924;2023-08-08T20:07:20;17.80;99.20
3134;DHT22;1577;49.912;10.924;2023-08-08T20:09:46;17.80;99.10
3134;DHT22;1577;49.912;10.924;2023-08-08T20:12:12;17.70;99.60
3134;DHT22;1577;49.912;10.924;2023-08-08T20:14:37;17.60;99.90
3134;DHT22;1577;49.912;10.924;2023-08-08T20:17:03;17.50;99.70
3134;DHT22;1577;49.912;10.924;2023-08-08T20:19:28;17.50;99.90
3134;DHT22;1577;49.912;10.924;2023-08-08T20:21:54;17.50;99.90
3134;DHT22;1577;49.912;10.924;2023-08-08T20:24:20;17.60;99.90
3134;DHT22;1577;49.912;10.924;2023-08-08T20:26:45;17.50;99.90
3134;DHT22;1577;49.912;10.924;2023-08-08T20:29:12;17.50;99.90
3134;DHT22;1577;49.912;10.924;2023-08-08T20:31:37;17.60;99.90
3134;DHT22;1577;49.912;10.924;2023-08-08T20:34:03;17.50;99.90
3134;DHT22;1577;49.912;10.924;2023-08-08T20:36:28;17.60;99.90
3134;DHT22;1577;49.912;10.924;2023-08-08T20:38:54;17.50;99.90
3134;DHT22;1577;49.912;10.924;2023-08-08T20:41:20;17.50;99.90
3134;DHT22;1577;49.912;10.924;2023-08-08T20:43:46;17.50;99.90
3134;DHT22;1577;49.912;10.924;2023-08-08T20:46:12;17.40;99.90
3134;DHT22;1577;49.912;10.924;2023-08-08T20:48:40;17.40;99.90
3134;DHT22;1577;49.912;10.924;2023-08-08T20:51:06;17.40;99.90
3134;DHT22;1577;49.912;10.924;2023-08-08T20:53:31;17.30;99.90
3134;DHT22;1577;49.912;10.924;2023-08-08T20:55:57;17.20;99.90
3134;DHT22;1577;49.912;10.924;2023-08-08T20:58:22;17.20;99.90
3134;DHT22;1577;49.912;10.924;2023-08-08T21:00:48;17.30;99.90
3134;DHT22;1577;49.912;10.924;2023-08-08T21:03:14;17.30;99.90
3134;DHT22;1577;49.912;10.924;2023-08-08T21:05:39;17.30;99.90
3134;DHT22;1577;49.912;10.924;2023-08-08T21:08:05;17.30;99.90
3134;DHT22;1577;49.912;10.924;2023-08-08T21:10:31;17.30;99.90
3134;DHT22;1577;49.912;10.924;2023-08-08T21:12:56;17.20;99.90
3134;DHT22;1577;49.912;10.924;2023-08-08T21:15:22;17.20;99.90
3134;DHT22;1577;49.912;10.924;2023-08-08T21:17:47;17.30;99.90
3134;DHT22;1577;49.912;10.924;2023-08-08T21:20:13;17.20;99.90
3134;DHT22;1577;49.912;10.924;2023-08-08T21:22:39;17.10;99.90
3134;DHT22;1577;49.912;10.924;2023-08-08T21:25:06;17.00;99.90
3134;DHT22;1577;49.912;10.924;2023-08-08T21:27:32;16.90;99.90
3134;DHT22;1577;49.912;10.924;2023-08-08T21:29:58;16.80;99.90
3134;DHT22;1577;49.912;10.924;2023-08-08T21:32:24;16.70;99.90
3134;DHT22;1577;49.912;10.924;2023-08-08T21:34:50;16.60;99.90
3134;DHT22;1577;49.912;10.924;2023-08-08T21:37:16;16.50;99.90
3134;DHT22;1577;49.912;10.924;2023-08-08T21:39:41;16.40;99.90
3134;DHT22;1577;49.912;10.924;2023-08-08T21:42:07;16.30;99.90
3134;DHT22;1577;49.912;10.924;2023-08-08T21:44:33;16.20;99.90
3134;DHT22;1577;49.912;10.924;2023-08-08T21:46:59;16.20;99.90
3134;DHT22;1577;49.912;10.924;2023-08-08T21:49:25;16.20;99.90
3134;DHT22;1577;49.912;10.924;2023-08-08T21:51:50;16.10;99.90
3134;DHT22;1577;49.912;10.924;2023-08-08T21:54:16;16.10;99.90
3134;DHT22;1577;49.912;10.924;2023-08-08T21:56:42;16.10;99.90
3134;DHT22;1577;49.912;10.924;2023-08-08T21:59:10;16.00;99.90
3134;DHT22;1577;49.912;10.924;2023-08-08T22:01:36;16.00;99.90
3134;DHT22;1577;49.912;10.924;2023-08-08T22:04:02;16.00;99.90
3134;DHT22;1577;49.912;10.924;2023-08-08T22:06:29;16.00;99.90
3134;DHT22;1577;49.912;10.924;2023-08-08T22:08:54;16.00;99.90
3134;DHT22;1577;49.912;10.924;2023-08-08T22:11:20;16.00;99.90
3134;DHT22;1577;49.912;10.924;2023-08-08T22:13:46;16.00;99.90
3134;DHT22;1577;49.912;10.924;2023-08-08T22:16:12;16.10;99.90
3134;DHT22;1577;49.912;10.924;2023-08-08T22:18:37;16.10;99.90
3134;DHT22;1577;49.912;10.924;2023-08-08T22:21:03;16.20;99.90
3134;DHT22;1577;49.912;10.924;2023-08-08T22:23:28;16.20;99.90
3134;DHT22;1577;49.912;10.924;2023-08-08T22:25:54;16.30;99.90
3134;DHT22;1577;49.912;10.924;2023-08-08T22:28:20;16.30;99.90
3134;DHT22;1577;49.912;10.924;2023-08-08T22:30:46;16.20;99.90
3134;DHT22;1577;49.912;10.924;2023-08-08T22:33:12;16.20;99.90
3134;DHT22;1577;49.912;10.924;2023-08-08T22:35:37;16.20;99.90
3134;DHT22;1577;49.912;10.924;2023-08-08T22:38:03;16.20;99.90
3134;DHT22;1577;49.912;10.924;2023-08-08T22:40:28;16.20;99.90
3134;DHT22;1577;49.912;10.924;2023-08-08T22:42:54;16.20;99.90
3134;DHT22;1577;49.912;10.924;2023-08-08T22:45:20;16.20;99.90
3134;DHT22;1577;49.912;10.924;2023-08-08T22:47:46;16.10;99.90
3134;DHT22;1577;49.912;10.924;2023-08-08T22:50:11;16.30;99.90
3134;DHT22;1577;49.912;10.924;2023-08-08T22:52:37;16.30;99.90
3134;DHT22;1577;49.912;10.924;2023-08-08T22:55:03;16.20;99.90
3134;DHT22;1577;49.912;10.924;2023-08-08T22:57:29;16.30;99.90
3134;DHT22;1577;49.912;10.924;2023-08-08T22:59:55;16.30;99.90
3134;DHT22;1577;49.912;10.924;2023-08-08T23:02:20;16.30;99.90
3134;DHT22;1577;49.912;10.924;2023-08-08T23:04:47;16.30;99.90
3134;DHT22;1577;49.912;10.924;2023-08-08T23:07:12;16.30;99.90
3134;DHT22;1577;49.912;10.924;2023-08-08T23:09:38;16.30;99.90
3134;DHT22;1577;49.912;10.924;2023-08-08T23:12:04;16.30;99.90
3134;DHT22;1577;49.912;10.924;2023-08-08T23:14:30;16.40;99.90
3134;DHT22;1577;49.912;10.924;2023-08-08T23:16:55;16.40;99.90
3134;DHT22;1577;49.912;10.924;2023-08-08T23:19:21;16.30;99.90
3134;DHT22;1577;49.912;10.924;2023-08-08T23:21:46;16.30;99.90
3134;DHT22;1577;49.912;10.924;2023-08-08T23:24:12;16.30;99.90
3134;DHT22;1577;49.912;10.924;2023-08-08T23:26:38;16.30;99.90
3134;DHT22;1577;49.912;10.924;2023-08-08T23:29:04;16.30;99.90
3134;DHT22;1577;49.912;10.924;2023-08-08T23:31:31;16.30;99.90
3134;DHT22;1577;49.912;10.924;2023-08-08T23:33:57;16.30;99.90
3134;DHT22;1577;49.912;10.924;2023-08-08T23:36:23;16.30;99.90
3134;DHT22;1577;49.912;10.924;2023-08-08T23:38:49;16.40;99.90
3134;DHT22;1577;49.912;10.924;2023-08-08T23:41:16;16.40;99.90
3134;DHT22;1577;49.912;10.924;2023-08-08T23:43:42;16.40;99.90
3134;DHT22;1577;49.912;10.924;2023-08-08T23:46:08;16.40;99.90
3134;DHT22;1577;49.912;10.924;2023-08-08T23:48:33;16.50;99.90
3134;DHT22;1577;49.912;10.924;2023-08-08T23:50:59;16.60;99.90
3134;DHT22;1577;49.912;10.924;2023-08-08T23:53:24;16.60;99.90
3134;DHT22;1577;49.912;10.924;2023-08-08T23:55:50;16.80;99.90
